createdAt,value
2023-12-04T00:00:04.913Z,92.40
2023-12-04T00:02:43.957Z,92.50
2023-12-04T00:05:11.938Z,92.50
2023-12-04T00:07:52.583Z,92.50
2023-12-04T00:13:55.242Z,92.50
2023-12-04T00:16:24.663Z,92.50
2023-12-04T00:18:55.159Z,92.50
2023-12-04T00:21:22.200Z,92.50
2023-12-04T00:23:49.147Z,92.50
2023-12-04T00:26:20.398Z,92.50
2023-12-04T00:28:52.816Z,92.50
2023-12-04T00:31:25.753Z,92.60
2023-12-04T00:33:52.901Z,92.60
2023-12-04T00:36:21.015Z,92.60
2023-12-04T00:38:55.242Z,92.60
2023-12-04T00:41:44.041Z,92.60
2023-12-04T00:44:14.287Z,92.70
2023-12-04T00:47:17.674Z,92.70
2023-12-04T00:49:52.138Z,92.70
2023-12-04T00:52:29.100Z,92.70
2023-12-04T00:55:02.104Z,92.70
2023-12-04T00:57:30.994Z,92.70
2023-12-04T01:00:05.309Z,92.70
2023-12-04T01:02:34.196Z,92.70
2023-12-04T01:05:25.779Z,92.70
2023-12-04T01:07:57.696Z,92.70
2023-12-04T01:13:22.209Z,92.70
2023-12-04T01:16:19.540Z,92.80
2023-12-04T01:18:47.185Z,92.80
2023-12-04T01:21:48.063Z,92.80
2023-12-04T01:24:20.848Z,92.80
2023-12-04T01:26:50.632Z,92.80
2023-12-04T01:29:40.527Z,92.80
2023-12-04T01:35:18.973Z,92.80
2023-12-04T01:41:37.714Z,92.80
2023-12-04T01:44:21.165Z,93.10
2023-12-04T01:56:11.438Z,92.80
2023-12-04T01:59:08.938Z,92.80
2023-12-04T02:01:41.134Z,92.90
2023-12-04T02:04:29.676Z,92.80
2023-12-04T02:07:02.086Z,92.80
2023-12-04T02:09:32.478Z,92.80
2023-12-04T02:12:00.238Z,92.80
2023-12-04T02:14:47.883Z,92.80
2023-12-04T02:17:17.711Z,92.90
2023-12-04T02:19:52.991Z,92.80
2023-12-04T02:22:57.919Z,92.90
2023-12-04T02:25:43.303Z,93.10
2023-12-04T02:28:18.016Z,92.90
2023-12-04T02:31:02.504Z,92.90
2023-12-04T02:40:07.061Z,92.90
2023-12-04T02:42:57.240Z,92.90
2023-12-04T02:45:29.118Z,92.90
2023-12-04T02:47:59.370Z,92.90
2023-12-04T02:50:27.804Z,92.80
2023-12-04T02:52:57.764Z,92.90
2023-12-04T02:55:26.972Z,92.90
2023-12-04T02:58:00.202Z,92.90
2023-12-04T03:00:29.753Z,92.90
2023-12-04T03:02:59.082Z,92.90
2023-12-04T03:05:27.342Z,92.90
2023-12-04T03:08:14.014Z,92.80
2023-12-04T03:10:41.005Z,92.80
2023-12-04T03:13:10.430Z,92.80
2023-12-04T03:15:48.734Z,92.80
2023-12-04T03:20:55.280Z,92.80
2023-12-04T03:21:19.745Z,92.80
2023-12-04T03:23:49.050Z,92.80
2023-12-04T03:26:19.224Z,92.80
2023-12-04T03:28:54.357Z,92.80
2023-12-04T03:31:24.714Z,92.80
2023-12-04T03:33:54.773Z,92.80
2023-12-04T03:36:23.799Z,92.80
2023-12-04T03:38:52.646Z,92.80
2023-12-04T03:41:43.616Z,92.80
2023-12-04T03:44:22.976Z,92.80
2023-12-04T03:49:52.200Z,92.80
2023-12-04T03:52:22.042Z,92.80
2023-12-04T04:03:53.219Z,92.80
2023-12-04T04:04:17.401Z,92.80
2023-12-04T04:06:51.989Z,92.70
2023-12-04T04:12:54.301Z,92.70
2023-12-04T04:15:31.604Z,92.70
2023-12-04T04:18:30.256Z,92.80
2023-12-04T04:21:10.955Z,92.70
2023-12-04T04:23:46.492Z,92.70
2023-12-04T04:26:22.402Z,92.70
2023-12-04T04:29:43.968Z,92.70
2023-12-04T04:35:18.033Z,92.70
2023-12-04T04:37:48.875Z,92.70
2023-12-04T04:40:39.119Z,92.70
2023-12-04T04:43:30.952Z,92.70
2023-12-04T04:46:02.872Z,92.70
2023-12-04T04:51:17.625Z,92.70
2023-12-04T04:53:44.740Z,92.70
2023-12-04T04:56:11.962Z,92.70
2023-12-04T04:59:59.282Z,92.80
2023-12-04T05:02:14.980Z,92.70
2023-12-04T05:05:00.541Z,92.80
2023-12-04T05:07:29.674Z,93.00
2023-12-04T05:10:12.958Z,92.80
2023-12-04T05:12:49.243Z,92.80
2023-12-04T05:15:18.532Z,92.80
2023-12-04T05:18:13.245Z,92.80
2023-12-04T05:24:14.276Z,92.80
2023-12-04T05:29:31.408Z,93.00
2023-12-04T05:32:23.085Z,92.80
2023-12-04T05:38:00.774Z,92.80
2023-12-04T05:40:58.003Z,92.80
2023-12-04T05:43:21.275Z,92.80
2023-12-04T05:46:21.510Z,92.80
2023-12-04T05:48:49.021Z,92.80
2023-12-04T06:14:50.181Z,92.80
2023-12-04T06:21:03.790Z,92.80
2023-12-04T06:24:16.168Z,92.80
2023-12-04T06:36:07.685Z,92.70
2023-12-04T06:38:38.797Z,92.70
2023-12-04T06:41:05.974Z,92.80
2023-12-04T06:43:54.095Z,92.80
2023-12-04T06:46:23.502Z,92.80
2023-12-04T06:52:12.043Z,92.80
2023-12-04T06:54:39.092Z,92.80
2023-12-04T06:57:06.187Z,92.80
2023-12-04T06:59:33.162Z,92.80
2023-12-04T07:02:00.144Z,92.80
2023-12-04T07:08:11.714Z,92.80
2023-12-04T07:10:38.791Z,92.80
2023-12-04T07:13:15.233Z,92.80
2023-12-04T07:15:42.302Z,92.80
2023-12-04T07:18:12.118Z,92.80
2023-12-04T07:24:13.370Z,92.80
2023-12-04T07:26:40.329Z,92.80
2023-12-04T07:32:33.322Z,92.80
2023-12-04T07:37:43.573Z,92.80
2023-12-04T07:40:13.059Z,92.80
2023-12-04T07:45:46.243Z,92.80
2023-12-04T07:52:14.842Z,92.80
2023-12-04T07:58:13.539Z,92.80
2023-12-04T08:03:25.909Z,92.80
2023-12-04T08:05:55.973Z,92.80
2023-12-04T08:11:57.945Z,92.80
2023-12-04T08:14:25.386Z,92.70
2023-12-04T08:16:52.239Z,92.80
2023-12-04T08:19:19.793Z,92.80
2023-12-04T08:21:48.829Z,92.70
2023-12-04T08:24:51.048Z,92.70
2023-12-04T08:27:24.612Z,92.80
2023-12-04T08:29:51.658Z,92.80
2023-12-04T08:32:18.580Z,92.80
2023-12-04T08:34:59.071Z,92.70
2023-12-04T08:37:45.412Z,92.70
2023-12-04T08:44:03.120Z,92.70
2023-12-04T08:47:02.209Z,92.70
2023-12-04T08:49:43.433Z,92.70
2023-12-04T08:52:17.464Z,92.70
2023-12-04T08:55:08.030Z,92.60
2023-12-04T08:57:56.370Z,92.60
2023-12-04T09:04:12.744Z,92.60
2023-12-04T09:09:35.869Z,92.60
2023-12-04T09:12:10.694Z,92.60
2023-12-04T09:14:39.588Z,92.60
2023-12-04T09:17:06.608Z,92.60
2023-12-04T09:19:36.402Z,92.60
2023-12-04T09:23:04.328Z,92.60
2023-12-04T09:29:37.740Z,92.60
2023-12-04T09:35:11.662Z,92.70
2023-12-04T09:38:28.848Z,92.60
2023-12-04T09:44:44.743Z,92.60
2023-12-04T09:50:49.382Z,92.50
2023-12-04T09:57:08.859Z,92.50
2023-12-04T10:00:23.898Z,92.50
2023-12-04T10:03:31.565Z,92.50
2023-12-04T10:06:12.678Z,92.50
2023-12-04T10:12:52.388Z,92.50
2023-12-04T10:16:07.121Z,92.50
2023-12-04T10:18:36.936Z,92.50
2023-12-04T10:24:50.208Z,92.50
2023-12-04T10:27:19.054Z,92.50
2023-12-04T10:34:02.857Z,92.50
2023-12-04T10:40:19.619Z,92.50
2023-12-04T10:46:26.547Z,92.50
2023-12-04T10:49:12.472Z,92.50
2023-12-04T10:51:47.458Z,92.50
2023-12-04T10:54:25.148Z,92.50
2023-12-04T10:57:31.909Z,92.50
2023-12-04T11:08:12.559Z,92.50
2023-12-04T11:17:45.018Z,92.50
2023-12-04T11:20:20.153Z,92.50
2023-12-04T11:22:47.149Z,92.50
2023-12-04T11:35:00.969Z,92.40
2023-12-04T11:37:29.104Z,92.50
2023-12-04T11:39:57.271Z,92.40
2023-12-04T11:49:32.130Z,92.40
2023-12-04T11:55:21.612Z,92.30
2023-12-04T12:05:30.606Z,92.30
2023-12-04T12:08:31.016Z,92.30
2023-12-04T12:10:58.176Z,92.30
2023-12-04T12:16:56.599Z,92.30
2023-12-04T12:20:02.533Z,92.40
2023-12-04T12:26:39.364Z,92.40
2023-12-04T12:29:06.283Z,92.30
2023-12-04T12:34:55.871Z,92.30
2023-12-04T12:40:46.079Z,92.30
2023-12-04T12:46:52.012Z,92.40
2023-12-04T12:50:27.323Z,92.40
2023-12-04T12:52:54.900Z,92.40
2023-12-04T12:56:04.347Z,92.40
2023-12-04T13:05:39.874Z,92.40
2023-12-04T13:08:13.448Z,92.40
2023-12-04T13:11:07.674Z,92.40
2023-12-04T13:17:07.876Z,92.40
2023-12-04T13:22:49.295Z,92.40
2023-12-04T13:25:58.452Z,92.40
2023-12-04T13:31:27.692Z,92.40
2023-12-04T13:37:29.658Z,92.50
2023-12-04T13:39:59.636Z,92.40
2023-12-04T13:45:29.745Z,92.50
2023-12-04T13:50:57.040Z,92.40
2023-12-04T13:53:30.708Z,92.40
2023-12-04T13:59:45.402Z,92.50
2023-12-04T14:03:07.145Z,92.50
2023-12-04T14:06:12.654Z,92.40
2023-12-04T14:08:42.199Z,92.40
2023-12-04T14:15:13.413Z,92.50
2023-12-04T14:18:05.451Z,92.40
2023-12-04T14:24:07.302Z,92.40
2023-12-04T14:30:00.417Z,92.40
2023-12-04T14:33:01.889Z,92.40
2023-12-04T14:35:30.377Z,92.40
2023-12-04T14:37:57.333Z,92.40
2023-12-04T14:40:25.233Z,92.40
2023-12-04T14:42:52.265Z,92.50
2023-12-04T14:51:35.465Z,92.60
2023-12-04T14:58:23.703Z,92.60
2023-12-04T15:01:13.812Z,92.60
2023-12-04T15:06:53.704Z,92.60
2023-12-04T15:09:28.690Z,92.60
2023-12-04T15:12:31.132Z,92.60
2023-12-04T15:15:23.008Z,92.60
2023-12-04T15:17:53.015Z,92.60
2023-12-04T15:20:28.170Z,92.70
2023-12-04T15:23:32.188Z,92.60
2023-12-04T15:25:59.436Z,92.70
2023-12-04T15:28:26.369Z,92.70
2023-12-04T15:30:53.541Z,92.60
2023-12-04T15:33:29.874Z,92.70
2023-12-04T15:39:33.064Z,92.70
2023-12-04T15:42:30.723Z,92.70
2023-12-04T15:44:57.399Z,92.80
2023-12-04T15:54:18.458Z,92.80
2023-12-04T15:57:32.215Z,92.80
2023-12-04T16:06:38.702Z,92.80
2023-12-04T16:09:41.013Z,92.80
2023-12-04T16:15:30.064Z,92.80
2023-12-04T16:17:57.052Z,92.80
2023-12-04T16:20:26.582Z,92.90
2023-12-04T16:22:53.617Z,92.90
2023-12-04T16:25:24.329Z,92.90
2023-12-04T16:28:23.342Z,92.80
2023-12-04T16:30:53.332Z,92.80
2023-12-04T16:33:46.673Z,92.90
2023-12-04T16:39:31.249Z,92.90
2023-12-04T16:45:03.375Z,92.90
2023-12-04T16:48:00.074Z,92.90
2023-12-04T16:51:02.561Z,92.90
2023-12-04T16:53:29.614Z,92.90
2023-12-04T16:59:27.760Z,92.90
2023-12-04T17:01:54.718Z,92.90
2023-12-04T17:04:23.206Z,92.90
2023-12-04T17:07:02.280Z,92.90
2023-12-04T17:10:15.435Z,92.90
2023-12-04T17:16:04.987Z,92.90
2023-12-04T17:18:32.314Z,92.90
2023-12-04T17:20:59.529Z,92.90
2023-12-04T17:26:19.107Z,92.90
2023-12-04T17:40:34.383Z,92.90
2023-12-04T17:52:56.574Z,92.90
2023-12-04T17:55:24.922Z,92.90
2023-12-04T17:58:31.452Z,92.90
2023-12-04T18:00:58.613Z,92.90
2023-12-04T18:03:25.855Z,92.90
2023-12-04T18:09:18.324Z,92.90
2023-12-04T18:12:08.428Z,92.90
2023-12-04T18:14:37.381Z,93.00
2023-12-04T18:17:07.696Z,93.00
2023-12-04T18:19:45.490Z,93.00
2023-12-04T18:22:17.164Z,93.00
2023-12-04T18:24:52.693Z,93.00
2023-12-04T18:27:55.901Z,93.00
2023-12-04T18:30:25.756Z,93.00
2023-12-04T18:32:52.891Z,93.00
2023-12-04T18:39:19.274Z,93.00
2023-12-04T18:41:50.435Z,93.00
2023-12-04T18:44:30.107Z,93.00
2023-12-04T18:46:57.857Z,93.00
2023-12-04T18:50:12.340Z,93.00
2023-12-04T18:52:39.463Z,93.00
2023-12-04T18:55:06.616Z,93.00
2023-12-04T18:57:33.537Z,93.00
2023-12-04T19:02:41.188Z,93.00
2023-12-04T19:05:09.071Z,93.00
2023-12-04T19:07:43.529Z,93.00
2023-12-04T19:10:11.111Z,93.00
2023-12-04T19:12:38.219Z,93.00
2023-12-04T19:15:05.269Z,93.00
2023-12-04T19:17:34.588Z,93.00
2023-12-04T19:20:08.817Z,93.00
2023-12-04T19:22:35.925Z,93.00
2023-12-04T19:25:02.970Z,93.00
2023-12-04T19:28:07.686Z,93.00
2023-12-04T19:30:47.992Z,93.00
2023-12-04T19:33:18.621Z,93.00
2023-12-04T19:35:53.942Z,93.00
2023-12-04T19:38:22.158Z,93.00
2023-12-04T19:40:49.470Z,93.00
2023-12-04T19:43:16.888Z,93.00
2023-12-04T19:45:56.190Z,93.00
2023-12-04T19:48:44.531Z,93.00
2023-12-04T19:51:20.278Z,93.00
2023-12-04T19:54:21.966Z,93.00
2023-12-04T19:56:58.930Z,93.20
2023-12-04T19:59:25.944Z,93.00
2023-12-04T20:01:52.951Z,93.00
2023-12-04T20:04:20.810Z,93.00
2023-12-04T20:06:48.363Z,92.90
2023-12-04T20:09:15.468Z,92.90
2023-12-04T20:14:25.830Z,92.90
2023-12-04T20:17:23.598Z,92.90
2023-12-04T20:19:56.205Z,93.00
2023-12-04T20:25:05.961Z,92.90
2023-12-04T20:31:08.469Z,92.90
2023-12-04T20:40:13.974Z,92.90
2023-12-04T20:42:47.118Z,92.90
2023-12-04T20:45:18.021Z,92.90
2023-12-04T20:51:19.815Z,92.90
2023-12-04T20:53:54.235Z,92.90
2023-12-04T20:56:35.089Z,92.90
2023-12-04T20:59:15.683Z,92.90
2023-12-04T21:01:54.115Z,92.90
2023-12-04T21:04:21.298Z,92.80
2023-12-04T21:16:30.732Z,92.80
2023-12-04T21:19:05.452Z,92.80
2023-12-04T21:22:05.403Z,92.80
2023-12-04T21:25:05.139Z,92.80
2023-12-04T21:31:03.853Z,92.80
2023-12-04T21:40:15.873Z,92.80
2023-12-04T21:43:26.815Z,92.80
2023-12-04T21:48:45.563Z,92.80
2023-12-04T21:51:14.856Z,92.80
2023-12-04T21:53:41.716Z,92.80
2023-12-04T21:56:08.946Z,92.90
2023-12-04T21:58:37.811Z,92.80
2023-12-04T22:01:05.430Z,92.80
2023-12-04T22:03:35.153Z,92.80
2023-12-04T22:06:23.615Z,92.80
2023-12-04T22:08:50.612Z,92.80
2023-12-04T22:11:17.668Z,92.80
2023-12-04T22:20:59.587Z,92.80
2023-12-04T22:30:51.616Z,92.80
2023-12-04T22:34:06.532Z,92.80
2023-12-04T22:40:23.105Z,92.80
2023-12-04T22:42:50.597Z,92.80
2023-12-04T22:45:49.885Z,92.80
2023-12-04T22:48:54.058Z,92.80
2023-12-04T22:51:21.350Z,92.80
2023-12-04T22:54:06.989Z,92.80
2023-12-04T22:56:34.103Z,92.80
2023-12-04T22:59:01.030Z,92.80
2023-12-04T23:01:27.836Z,92.80
2023-12-04T23:03:57.208Z,92.80
2023-12-04T23:06:24.332Z,92.70
2023-12-04T23:08:51.284Z,92.80
2023-12-04T23:11:22.617Z,92.70
2023-12-04T23:13:49.524Z,92.70
2023-12-04T23:16:16.503Z,92.70
2023-12-04T23:18:43.456Z,92.70
2023-12-04T23:21:10.516Z,93.00
2023-12-04T23:23:37.516Z,92.80
2023-12-04T23:26:04.740Z,92.80
2023-12-04T23:28:31.565Z,92.80
2023-12-04T23:30:58.478Z,92.80
2023-12-04T23:33:25.639Z,92.70
2023-12-04T23:35:53.323Z,92.70
2023-12-04T23:38:20.429Z,92.70
2023-12-04T23:40:47.465Z,92.70
2023-12-04T23:43:14.699Z,92.70
2023-12-04T23:45:49.276Z,92.70
2023-12-04T23:48:20.424Z,92.70
2023-12-04T23:50:53.579Z,92.70
2023-12-04T23:53:20.487Z,92.70
2023-12-04T23:55:47.387Z,92.70
2023-12-04T23:58:14.284Z,92.70
